Melbourne International Airport Melbourne US
ICAO: KMLB
IATA: MLB
Category: Medium
Scheduled Services: Yes

Elevation: 33 ft
TransAlt. 18000 ft.

Airport Communications:
ORLANDO APP/DEP:132.65
ATIS:132.55
CLNC DEL:121.9
CTAF:118.2
GND:121.9
GRUMMAN OPS:123.2
ST PETERSBURG RDO:122.6
TWR:118.2
UNICOM:122.95

KMLB Zoom In..

Runways:

(A) RW 05 length 3001 ft width 75 ft
---- / hdg 49

(B) RW 09L length 6000 ft width 150 ft
---- / hdg 94

(C) RW 09R length 10181 ft width 150 ft
ILS 108.30 / hdg 94

(D) RW 23 length 3001 ft width 75 ft
---- / hdg 229

(E) RW 27L length 10181 ft width 150 ft
---- / hdg 274

(F) RW 27R length 6000 ft width 150 ft
---- / hdg 274

Location; KMLB
Day. 23 / Time. 03.53 Zulu
* Altimeter: 29.93
* Temperature: 25° c. 77°f.
* Wind from: 330° Speed 19 kn with Gusts up to 28 kn.
Dewpoint: 23° c.
Visibility: 1 m.
Clouds: Few 1200 ft.
Clouds: Broken 5000 ft.
Clouds: Overcast 8000 ft.
Conditions: Mist.

KMLB 230353Z 33019G28KT 1 1/4SM R09R/4000VP6000FT +RA BR FEW012 BKN050 OVC080 25/23 A2993 RMK AO2 PK WND 32028/0349 LTG DSNT NW RAE19B35 SLP134 P0019 T02500228


Wind From 330°
Speed 19 kn.

 
 
jpsmedia.com for Web Design worldairports.se 2018   terms of use